Terminal Aerodrome Forecast
Issued by NWS

Home | Current Version | Previous Version | Graphics & Text | Print | Product List | Glossary On
Versions: 1 2 3 4 5 6 7 8 9 10 11 12 13
000
FTUS43 KLSX 181700
TAFSUS
TAF
KSUS 181720Z 1818/1918 VRB04KT P6SM SKC
      TEMPO 1909/1913 5SM BR=

USA.gov is the U.S. government's official web portal to all federal, state and local government web resources and services.